createdAt,value
2017-12-10T00:00:41.199Z,98589.94
2017-12-10T00:03:07.461Z,98593.09
2017-12-10T00:05:33.911Z,98591.73
2017-12-10T00:08:00.413Z,98580.72
2017-12-10T00:10:26.931Z,98581.36
2017-12-10T00:12:53.400Z,98570.86
2017-12-10T00:15:19.904Z,98568.45
2017-12-10T00:17:46.331Z,98556.55
2017-12-10T00:20:12.789Z,98564.95
2017-12-10T00:22:39.260Z,98563.64
2017-12-10T00:25:05.708Z,98565.22
2017-12-10T00:27:32.135Z,98568.58
2017-12-10T00:29:58.706Z,98563.86
2017-12-10T00:32:25.164Z,98554.04
2017-12-10T00:34:51.610Z,98561.68
2017-12-10T00:37:18.105Z,98580.25
2017-12-10T00:39:44.538Z,98566.75
2017-12-10T00:42:11.201Z,98555.44
2017-12-10T00:44:37.727Z,98556.31
2017-12-10T00:47:04.209Z,98555.39
2017-12-10T00:49:30.656Z,98537.25
2017-12-10T00:51:57.147Z,98540.59
2017-12-10T00:54:23.579Z,98524.67
2017-12-10T00:56:50.062Z,98534.53
2017-12-10T00:59:16.540Z,98536.87
2017-12-10T01:01:43.012Z,98532.49
2017-12-10T01:04:09.821Z,98534.84
2017-12-10T01:06:36.368Z,98543.74
2017-12-10T01:09:02.865Z,98536.46
2017-12-10T01:11:29.297Z,98531.05
2017-12-10T01:13:55.801Z,98530.13
2017-12-10T01:16:22.241Z,98520.41
2017-12-10T01:18:48.701Z,98509.33
2017-12-10T01:21:15.212Z,98509.42
2017-12-10T01:23:42.014Z,98505.81
2017-12-10T01:26:08.461Z,98499.31
2017-12-10T01:28:34.964Z,98492.52
2017-12-10T01:31:01.381Z,98479.98
2017-12-10T01:33:27.871Z,98459.20
2017-12-10T01:35:54.451Z,98445.23
2017-12-10T01:38:20.872Z,98440.05
2017-12-10T01:40:47.321Z,98413.04
2017-12-10T01:43:13.828Z,98400.95
2017-12-10T01:45:40.288Z,98417.16
2017-12-10T01:48:06.737Z,98429.35
2017-12-10T01:50:33.292Z,98432.00
2017-12-10T01:52:59.794Z,98463.50
2017-12-10T01:55:26.219Z,98471.27
2017-12-10T01:57:52.711Z,98506.53
2017-12-10T02:00:19.168Z,98529.36
2017-12-10T02:02:45.612Z,98542.69
2017-12-10T02:05:12.088Z,98557.81
2017-12-10T02:07:38.544Z,98567.87
2017-12-10T02:10:05.028Z,98573.14
2017-12-10T02:12:31.519Z,98609.20
2017-12-10T02:14:57.915Z,98610.71
2017-12-10T02:17:24.377Z,98657.25
2017-12-10T02:19:50.912Z,98654.69
2017-12-10T02:22:17.375Z,98641.98
2017-12-10T02:24:43.818Z,98629.72
2017-12-10T02:27:10.320Z,98652.32
2017-12-10T02:29:36.783Z,98631.00
2017-12-10T02:32:03.273Z,98621.36
2017-12-10T02:34:29.783Z,98628.63
2017-12-10T02:36:56.248Z,98637.52
2017-12-10T02:39:22.720Z,98650.17
2017-12-10T02:41:49.327Z,98649.45
2017-12-10T02:44:15.792Z,98654.84
2017-12-10T02:46:42.256Z,98664.92
2017-12-10T02:49:08.775Z,98626.19
2017-12-10T02:51:35.267Z,98619.63
2017-12-10T02:54:01.852Z,98620.03
2017-12-10T02:56:28.355Z,98652.13
2017-12-10T02:58:54.805Z,98666.48
2017-12-10T03:01:21.257Z,98663.02
2017-12-10T03:03:47.756Z,98669.77
2017-12-10T03:06:14.465Z,98666.45
2017-12-10T03:08:44.751Z,98674.25
2017-12-10T03:11:11.274Z,98675.09
2017-12-10T03:13:37.741Z,98702.17
2017-12-10T03:16:04.222Z,98713.27
2017-12-10T03:18:30.844Z,98720.29
2017-12-10T03:20:57.300Z,98715.52
2017-12-10T03:23:23.758Z,98703.95
2017-12-10T03:25:50.256Z,98688.87
2017-12-10T03:28:16.706Z,98692.36
2017-12-10T03:30:43.197Z,98686.62
2017-12-10T03:33:09.716Z,98683.19
2017-12-10T03:35:36.168Z,98676.48
2017-12-10T03:38:02.637Z,98680.89
2017-12-10T03:40:29.170Z,98648.09
2017-12-10T03:42:55.741Z,98608.38
2017-12-10T03:45:22.276Z,98630.42
2017-12-10T03:47:48.772Z,98632.98
2017-12-10T03:50:15.221Z,98630.42
2017-12-10T03:52:41.665Z,98634.44
2017-12-10T03:55:08.153Z,98637.88
2017-12-10T03:57:34.599Z,98647.91
2017-12-10T04:00:01.004Z,98647.11
2017-12-10T04:02:27.616Z,98666.93
2017-12-10T04:04:54.152Z,98679.39
2017-12-10T04:07:20.568Z,98698.27
2017-12-10T04:09:47.068Z,98706.59
2017-12-10T04:12:13.555Z,98718.73
2017-12-10T04:14:39.989Z,98729.64
2017-12-10T04:17:06.501Z,98743.30
2017-12-10T04:19:32.931Z,98744.52
2017-12-10T04:21:59.368Z,98748.30
2017-12-10T04:24:25.861Z,98759.24
2017-12-10T04:26:52.289Z,98757.48
2017-12-10T04:29:18.720Z,98760.34
2017-12-10T04:31:45.296Z,98759.09
2017-12-10T04:34:11.729Z,98772.94
2017-12-10T04:36:38.180Z,98784.95
2017-12-10T04:39:04.730Z,98803.97
2017-12-10T04:41:31.143Z,98814.11
2017-12-10T04:43:57.574Z,98834.31
2017-12-10T04:46:24.036Z,98852.55
2017-12-10T04:48:50.462Z,98855.98
2017-12-10T04:51:16.904Z,98857.05
2017-12-10T04:53:43.365Z,98866.41
2017-12-10T04:56:09.800Z,98857.17
2017-12-10T04:58:36.255Z,98839.69
2017-12-10T05:01:02.721Z,98826.05
2017-12-10T05:03:29.269Z,98827.80
2017-12-10T05:05:55.700Z,98836.36
2017-12-10T05:08:22.480Z,98835.02
2017-12-10T05:10:48.916Z,98839.59
2017-12-10T05:13:15.342Z,98846.84
2017-12-10T05:15:41.823Z,98855.92
2017-12-10T05:18:08.241Z,98846.22
2017-12-10T05:20:34.639Z,98862.57
2017-12-10T05:23:01.201Z,98876.02
2017-12-10T05:25:27.680Z,98888.80
2017-12-10T05:27:54.218Z,98868.62
2017-12-10T05:30:20.680Z,98877.71
2017-12-10T05:32:47.116Z,98911.08
2017-12-10T05:35:13.548Z,98916.00
2017-12-10T05:37:40.076Z,98907.18
2017-12-10T05:40:06.511Z,98899.94
2017-12-10T05:42:33.020Z,98899.60
2017-12-10T05:44:59.486Z,98914.98
2017-12-10T05:47:25.929Z,98906.74
2017-12-10T05:49:52.348Z,98930.39
2017-12-10T05:52:18.856Z,98938.16
2017-12-10T05:54:45.288Z,98947.38
2017-12-10T05:57:11.830Z,98942.42
2017-12-10T05:59:38.360Z,98966.66
2017-12-10T06:02:04.787Z,98961.33
2017-12-10T06:04:31.222Z,98968.56
2017-12-10T06:06:57.688Z,98980.83
2017-12-10T06:09:24.120Z,98993.59
2017-12-10T06:11:50.593Z,99001.28
2017-12-10T06:14:17.061Z,99008.96
2017-12-10T06:16:43.483Z,99013.12
2017-12-10T06:19:09.928Z,99021.33
2017-12-10T06:21:36.388Z,99037.71
2017-12-10T06:24:02.812Z,99026.08
2017-12-10T06:26:29.243Z,99050.82
2017-12-10T06:28:55.715Z,99030.91
2017-12-10T06:31:22.120Z,99066.62
2017-12-10T06:33:48.563Z,99063.81
2017-12-10T06:36:15.069Z,99087.86
2017-12-10T06:38:41.504Z,99095.42
2017-12-10T06:41:07.930Z,99096.45
2017-12-10T06:43:34.397Z,99099.20
2017-12-10T06:46:00.828Z,99101.03
2017-12-10T06:48:27.264Z,99114.02
2017-12-10T06:50:53.739Z,99119.36
2017-12-10T06:53:20.174Z,99108.78
2017-12-10T06:55:46.567Z,99113.20
2017-12-10T06:58:13.040Z,99113.93
2017-12-10T07:00:39.509Z,99096.03
2017-12-10T07:03:05.973Z,99110.34
2017-12-10T07:05:32.429Z,99105.98
2017-12-10T07:07:58.868Z,99113.78
2017-12-10T07:10:25.316Z,99113.25
2017-12-10T07:12:51.805Z,99117.31
2017-12-10T07:15:18.220Z,99109.87
2017-12-10T07:17:44.607Z,99098.23
2017-12-10T07:20:12.148Z,99142.50
2017-12-10T07:22:39.039Z,99163.00
2017-12-10T07:25:05.516Z,99175.68
2017-12-10T07:27:32.157Z,99197.16
2017-12-10T07:29:58.682Z,99196.91
2017-12-10T07:32:25.117Z,99209.56
2017-12-10T07:34:52.304Z,99234.51
2017-12-10T07:37:18.733Z,99250.09
2017-12-10T07:39:45.136Z,99256.66
2017-12-10T07:42:11.634Z,99266.27
2017-12-10T07:44:38.170Z,99270.22
2017-12-10T07:47:04.598Z,99272.42
2017-12-10T07:49:31.213Z,99276.55
2017-12-10T07:51:57.671Z,99272.62
2017-12-10T07:54:24.120Z,99264.00
2017-12-10T07:56:50.616Z,99272.36
2017-12-10T07:59:17.228Z,99247.41
2017-12-10T08:01:43.691Z,99260.81
2017-12-10T08:04:10.759Z,99275.08
2017-12-10T08:06:38.080Z,99297.40
2017-12-10T08:09:04.627Z,99301.31
2017-12-10T08:11:31.191Z,99311.10
2017-12-10T08:13:57.645Z,99329.13
2017-12-10T08:16:24.123Z,99351.73
2017-12-10T08:18:50.622Z,99372.63
2017-12-10T08:21:17.098Z,99387.95
2017-12-10T08:23:43.530Z,99393.26
2017-12-10T08:26:10.004Z,99386.55
2017-12-10T08:28:36.525Z,99408.50
2017-12-10T08:31:02.958Z,99386.59
2017-12-10T08:33:29.433Z,99418.76
2017-12-10T08:35:55.876Z,99400.30
2017-12-10T08:38:22.315Z,99401.55
2017-12-10T08:40:48.761Z,99424.16
2017-12-10T08:43:15.200Z,99417.30
2017-12-10T08:45:41.600Z,99426.25
2017-12-10T08:48:08.199Z,99423.91
2017-12-10T08:50:36.091Z,99431.41
2017-12-10T08:53:02.524Z,99437.66
2017-12-10T08:55:29.004Z,99444.70
2017-12-10T08:57:55.432Z,99445.89
2017-12-10T09:00:23.512Z,99457.96
2017-12-10T09:02:50.147Z,99467.52
2017-12-10T09:05:16.587Z,99484.66
2017-12-10T09:07:43.145Z,99446.73
2017-12-10T09:10:09.748Z,99459.34
2017-12-10T09:12:36.215Z,99434.27
2017-12-10T09:15:02.754Z,99415.70
2017-12-10T09:17:29.260Z,99411.18
2017-12-10T09:19:55.697Z,99413.80
2017-12-10T09:22:22.133Z,99416.58
2017-12-10T09:24:48.688Z,99454.72
2017-12-10T09:27:15.121Z,99453.33
2017-12-10T09:29:41.555Z,99473.44
2017-12-10T09:32:08.032Z,99481.34
2017-12-10T09:34:35.509Z,99495.45
2017-12-10T09:37:10.994Z,99514.34
2017-12-10T09:39:37.840Z,99514.28
2017-12-10T09:42:04.578Z,99533.97
2017-12-10T09:44:31.064Z,99532.20
2017-12-10T09:46:57.481Z,99528.63
2017-12-10T09:49:23.979Z,99551.10
2017-12-10T09:51:50.515Z,99534.36
2017-12-10T09:54:16.933Z,99529.81
2017-12-10T09:56:43.384Z,99532.79
2017-12-10T09:59:09.840Z,99536.49
2017-12-10T10:01:36.264Z,99516.95
2017-12-10T10:04:02.784Z,99530.36
2017-12-10T10:06:29.320Z,99523.30
2017-12-10T10:08:55.732Z,99507.64
2017-12-10T10:11:22.185Z,99522.34
2017-12-10T10:13:48.656Z,99505.64
2017-12-10T10:16:15.075Z,99514.95
2017-12-10T10:18:41.607Z,99528.96
2017-12-10T10:21:08.067Z,99545.51
2017-12-10T10:23:34.492Z,99554.69
2017-12-10T10:26:00.964Z,99536.95
2017-12-10T10:28:29.240Z,99537.92
2017-12-10T10:30:57.031Z,99553.80
2017-12-10T10:33:23.589Z,99530.76
2017-12-10T10:35:50.060Z,99531.48
2017-12-10T10:38:16.537Z,99551.22
2017-12-10T10:40:43.075Z,99557.04
2017-12-10T10:43:12.626Z,99542.48
2017-12-10T10:45:41.776Z,99537.13
2017-12-10T10:48:08.209Z,99542.13
2017-12-10T10:50:34.673Z,99544.25
2017-12-10T10:53:01.178Z,99554.73
2017-12-10T10:55:27.610Z,99553.11
2017-12-10T10:57:54.080Z,99547.44
2017-12-10T11:00:20.560Z,99563.58
2017-12-10T11:02:47.038Z,99563.34
2017-12-10T11:05:13.503Z,99567.01
2017-12-10T11:07:39.912Z,99586.39
2017-12-10T11:10:06.365Z,99580.26
2017-12-10T11:12:32.860Z,99588.09
2017-12-10T11:14:59.308Z,99597.94
2017-12-10T11:17:25.769Z,99599.72
2017-12-10T11:19:52.284Z,99604.95
2017-12-10T11:22:19.740Z,99607.78
2017-12-10T11:24:46.172Z,99600.85
2017-12-10T11:27:12.688Z,99601.25
2017-12-10T11:29:39.128Z,99619.85
2017-12-10T11:32:05.609Z,99602.77
2017-12-10T11:34:32.097Z,99619.27
2017-12-10T11:36:58.548Z,99621.04
2017-12-10T11:39:24.971Z,99621.23
2017-12-10T11:41:51.460Z,99611.90
2017-12-10T11:44:17.892Z,99604.41
2017-12-10T11:46:44.733Z,99592.25
2017-12-10T11:49:11.235Z,99588.28
2017-12-10T11:51:38.126Z,99594.73
2017-12-10T11:54:04.562Z,99594.12
2017-12-10T11:56:31.068Z,99599.34
2017-12-10T11:58:57.512Z,99607.73
2017-12-10T12:01:23.952Z,99606.84
2017-12-10T12:03:50.468Z,99616.73
2017-12-10T12:06:16.916Z,99616.06
2017-12-10T12:08:43.360Z,99626.34
2017-12-10T12:11:09.835Z,99626.48
2017-12-10T12:13:36.268Z,99627.34
2017-12-10T12:16:02.699Z,99645.45
2017-12-10T12:18:29.313Z,99652.39
2017-12-10T12:20:55.772Z,99657.87
2017-12-10T12:23:22.249Z,99657.17
2017-12-10T12:25:48.749Z,99663.19
2017-12-10T12:28:15.184Z,99667.63
2017-12-10T12:30:41.952Z,99674.00
2017-12-10T12:33:08.576Z,99667.08
2017-12-10T12:35:35.000Z,99674.25
2017-12-10T12:38:01.484Z,99678.69
2017-12-10T12:40:27.960Z,99687.08
2017-12-10T12:42:54.422Z,99688.09
2017-12-10T12:45:21.068Z,99674.71
2017-12-10T12:47:47.871Z,99680.66
2017-12-10T12:50:14.481Z,99673.23
2017-12-10T12:52:40.972Z,99675.50
2017-12-10T12:55:07.617Z,99672.85
2017-12-10T12:57:34.834Z,99677.14
2017-12-10T13:00:01.288Z,99678.34
2017-12-10T13:02:27.875Z,99688.37
2017-12-10T13:04:54.296Z,99694.31
2017-12-10T13:07:20.725Z,99694.42
2017-12-10T13:09:47.279Z,99693.27
2017-12-10T13:12:14.708Z,99690.31
2017-12-10T13:14:41.143Z,99706.16
2017-12-10T13:17:07.631Z,99706.80
2017-12-10T13:19:34.040Z,99721.60
2017-12-10T13:22:00.473Z,99729.05
2017-12-10T13:24:26.973Z,99732.59
2017-12-10T13:26:53.368Z,99732.34
2017-12-10T13:29:19.821Z,99734.77
2017-12-10T13:31:46.276Z,99729.63
2017-12-10T13:34:12.737Z,99727.25
2017-12-10T13:36:39.170Z,99732.42
2017-12-10T13:39:05.655Z,99737.62
2017-12-10T13:54:58.392Z,99731.80
2017-12-10T13:57:24.794Z,99740.64
2017-12-10T13:59:51.208Z,99722.31
2017-12-10T14:02:17.754Z,99731.52
2017-12-10T14:04:44.202Z,99721.03
2017-12-10T14:07:10.672Z,99719.80
2017-12-10T14:09:37.180Z,99713.52
2017-12-10T14:12:03.683Z,99720.72
2017-12-10T14:14:30.140Z,99725.94
2017-12-10T14:16:56.624Z,99731.11
2017-12-10T14:19:23.063Z,99734.16
2017-12-10T14:21:49.519Z,99743.30
2017-12-10T14:24:16.040Z,99739.85
2017-12-10T14:26:42.471Z,99735.72
2017-12-10T14:29:08.907Z,99749.67
2017-12-10T14:31:35.349Z,99752.85
2017-12-10T14:34:01.773Z,99760.67
2017-12-10T14:36:28.168Z,99752.94
2017-12-10T14:38:54.651Z,99756.20
2017-12-10T14:41:21.096Z,99752.73
2017-12-10T14:43:47.525Z,99744.77
2017-12-10T14:46:14.014Z,99747.38
2017-12-10T14:48:40.441Z,99748.87
2017-12-10T14:51:06.896Z,99751.83
2017-12-10T14:53:33.460Z,99754.12
2017-12-10T14:55:59.868Z,99755.48
2017-12-10T14:58:26.311Z,99750.06
2017-12-10T15:00:52.792Z,99753.91
2017-12-10T15:03:19.228Z,99761.56
2017-12-10T15:05:45.829Z,99757.45
2017-12-10T15:08:12.569Z,99758.19
2017-12-10T15:10:39.029Z,99761.85
2017-12-10T15:13:05.538Z,99764.73
2017-12-10T15:15:32.051Z,99777.17
2017-12-10T15:17:58.476Z,99783.85
2017-12-10T15:20:24.900Z,99792.58
2017-12-10T15:22:51.405Z,99795.05
2017-12-10T15:25:17.844Z,99809.48
2017-12-10T15:27:44.281Z,99807.40
2017-12-10T15:30:10.776Z,99804.80
2017-12-10T15:32:37.244Z,99815.07
2017-12-10T15:35:03.665Z,99809.44
2017-12-10T15:37:30.219Z,99814.88
2017-12-10T15:39:56.651Z,99820.61
2017-12-10T15:42:23.093Z,99808.50
2017-12-10T15:44:49.588Z,99808.02
2017-12-10T15:47:16.043Z,99812.23
2017-12-10T15:49:42.563Z,99815.34
2017-12-10T15:52:09.291Z,99803.36
2017-12-10T15:54:35.826Z,99799.17
2017-12-10T15:57:02.277Z,99794.98
2017-12-10T15:59:28.793Z,99787.23
2017-12-10T16:01:55.236Z,99784.00
2017-12-10T16:04:21.684Z,99794.41
2017-12-10T16:06:48.214Z,99798.62
2017-12-10T16:09:14.630Z,99822.05
2017-12-10T16:11:41.132Z,99825.62
2017-12-10T16:14:07.632Z,99835.71
2017-12-10T16:16:34.130Z,99839.77
2017-12-10T16:19:03.312Z,99850.94
2017-12-10T16:21:30.212Z,99863.64
2017-12-10T16:23:58.290Z,99873.57
2017-12-10T16:26:24.820Z,99877.02
2017-12-10T16:28:51.524Z,99871.13
2017-12-10T16:31:17.965Z,99872.94
2017-12-10T16:33:44.420Z,99869.83
2017-12-10T16:36:10.981Z,99869.06
2017-12-10T16:38:37.462Z,99865.21
2017-12-10T16:41:04.817Z,99874.23
2017-12-10T16:43:31.461Z,99868.09
2017-12-10T16:45:57.944Z,99868.75
2017-12-10T16:48:24.476Z,99865.49
2017-12-10T16:50:54.572Z,99862.05
2017-12-10T16:53:22.600Z,99869.50
2017-12-10T16:55:49.957Z,99867.91
2017-12-10T16:58:19.323Z,99866.33
2017-12-10T17:00:45.779Z,99874.67
2017-12-10T17:03:12.360Z,99882.29
2017-12-10T17:05:38.980Z,99891.19
2017-12-10T17:08:05.437Z,99901.44
2017-12-10T17:10:31.900Z,99909.05
2017-12-10T17:12:58.384Z,99904.88
2017-12-10T17:15:24.825Z,99895.86
2017-12-10T17:17:51.281Z,99893.23
2017-12-10T17:20:18.320Z,99896.72
2017-12-10T17:22:44.832Z,99891.73
2017-12-10T17:25:11.291Z,99896.77
2017-12-10T17:27:37.904Z,99894.79
2017-12-10T17:30:04.337Z,99897.44
2017-12-10T17:32:30.785Z,99896.27
2017-12-10T17:34:57.263Z,99905.45
2017-12-10T17:37:23.720Z,99910.91
2017-12-10T17:39:50.148Z,99917.23
2017-12-10T17:42:16.684Z,99931.55
2017-12-10T17:44:43.116Z,99941.34
2017-12-10T17:47:09.557Z,99926.63
2017-12-10T17:49:37.985Z,99930.75
2017-12-10T17:52:04.424Z,99925.37
2017-12-10T17:54:30.924Z,99931.66
2017-12-10T17:56:57.493Z,99936.84
2017-12-10T17:59:23.924Z,99938.60
2017-12-10T18:01:50.592Z,99929.97
2017-12-10T18:04:17.084Z,99937.52
2017-12-10T18:06:43.666Z,99939.81
2017-12-10T18:09:10.112Z,99943.61
2017-12-10T18:11:36.682Z,99950.06
2017-12-10T18:14:03.080Z,99951.80
2017-12-10T18:16:29.797Z,99961.24
2017-12-10T18:18:56.325Z,99958.26
2017-12-10T18:21:22.800Z,99960.69
2017-12-10T18:23:49.232Z,99969.73
2017-12-10T18:26:15.700Z,99974.73
2017-12-10T18:28:42.339Z,99984.34
2017-12-10T18:31:08.809Z,99986.39
2017-12-10T18:33:35.327Z,99985.09
2017-12-10T18:36:02.031Z,99987.09
2017-12-10T18:38:28.501Z,99983.39
2017-12-10T18:40:56.533Z,99978.61
2017-12-10T18:43:23.072Z,99984.76
2017-12-10T18:45:49.508Z,99975.47
2017-12-10T18:48:16.048Z,99966.09
2017-12-10T18:50:42.475Z,99958.98
2017-12-10T18:53:08.908Z,99962.39
2017-12-10T18:55:35.420Z,99960.12
2017-12-10T18:58:01.892Z,99961.98
2017-12-10T19:00:28.412Z,99963.94
2017-12-10T19:02:55.944Z,99971.00
2017-12-10T19:05:22.411Z,99976.16
2017-12-10T19:07:48.848Z,99980.88
2017-12-10T19:10:16.907Z,99976.64
2017-12-10T19:12:43.373Z,99982.17
2017-12-10T19:15:09.832Z,99971.36
2017-12-10T19:17:36.327Z,99976.38
2017-12-10T19:20:02.924Z,99978.86
2017-12-10T19:22:29.381Z,99971.26
2017-12-10T19:24:55.988Z,99975.77
2017-12-10T19:27:22.556Z,99964.09
2017-12-10T19:29:48.972Z,99960.78
2017-12-10T19:32:15.451Z,99955.57
2017-12-10T19:34:41.994Z,99953.84
2017-12-10T19:37:08.427Z,99958.16
2017-12-10T19:39:34.926Z,99954.82
2017-12-10T19:42:01.365Z,99954.28
2017-12-10T19:44:27.792Z,99954.28
2017-12-10T19:46:54.288Z,99941.13
2017-12-10T19:49:20.810Z,99956.66
2017-12-10T19:51:47.304Z,99955.31
2017-12-10T19:54:13.816Z,99959.21
2017-12-10T19:56:40.256Z,99968.13
2017-12-10T19:59:06.700Z,99964.22
2017-12-10T20:01:33.218Z,99968.05
2017-12-10T20:04:00.652Z,99956.31
2017-12-10T20:06:28.076Z,99958.68
2017-12-10T20:08:55.402Z,99970.05
2017-12-10T20:11:21.888Z,99972.27
2017-12-10T20:13:48.389Z,99978.39
2017-12-10T20:16:14.892Z,99968.89
2017-12-10T20:18:41.368Z,99971.36
2017-12-10T20:21:08.269Z,99975.73
2017-12-10T20:23:34.933Z,99968.89
2017-12-10T20:26:01.380Z,99978.53
2017-12-10T20:28:27.872Z,99977.09
2017-12-10T20:30:54.380Z,99980.52
2017-12-10T20:33:20.836Z,99980.99
2017-12-10T20:35:47.281Z,99963.83
2017-12-10T20:38:13.816Z,99977.70
2017-12-10T20:40:40.240Z,99979.83
2017-12-10T20:43:06.801Z,99979.30
2017-12-10T20:45:33.258Z,99983.64
2017-12-10T20:47:59.700Z,99994.53
2017-12-10T20:50:26.116Z,99992.84
2017-12-10T20:52:52.597Z,99983.43
2017-12-10T20:55:19.045Z,99989.46
2017-12-10T20:57:45.468Z,99990.23
2017-12-10T21:00:11.968Z,99984.42
2017-12-10T21:02:38.408Z,99987.29
2017-12-10T21:05:04.839Z,99987.34
2017-12-10T21:07:31.332Z,100002.25
2017-12-10T21:09:57.772Z,100009.89
2017-12-10T21:12:24.432Z,100014.45
2017-12-10T21:14:51.024Z,100009.38
2017-12-10T21:17:17.496Z,100016.52
2017-12-10T21:19:43.944Z,100011.53
2017-12-10T21:22:10.467Z,100006.45
2017-12-10T21:24:36.903Z,100001.38
2017-12-10T21:27:03.386Z,99994.08
2017-12-10T21:29:29.892Z,100004.41
2017-12-10T21:31:56.342Z,100002.75
2017-12-10T21:34:22.809Z,99999.41
2017-12-10T21:36:49.364Z,100005.83
2017-12-10T21:39:15.841Z,100001.45
2017-12-10T21:41:42.275Z,100000.55
2017-12-10T21:44:08.800Z,100004.28
2017-12-10T21:46:35.245Z,100014.58
2017-12-10T21:49:01.700Z,100008.95
2017-12-10T21:51:28.197Z,100014.55
2017-12-10T21:53:54.696Z,100011.19
2017-12-10T21:56:21.118Z,100016.02
2017-12-10T21:58:48.492Z,100012.56
2017-12-10T22:01:15.134Z,100021.39
2017-12-10T22:03:41.569Z,100013.36
2017-12-10T22:06:08.012Z,100015.34
2017-12-10T22:08:34.456Z,100019.27
2017-12-10T22:11:00.943Z,100030.06
2017-12-10T22:13:27.391Z,100022.14
2017-12-10T22:15:53.825Z,100011.33
2017-12-10T22:18:20.240Z,100003.90
2017-12-10T22:20:46.772Z,99992.64
2017-12-10T22:23:13.229Z,99987.02
2017-12-10T22:25:39.724Z,99984.42
2017-12-10T22:28:06.227Z,99984.82
2017-12-10T22:30:32.680Z,99996.91
2017-12-10T22:32:59.164Z,100001.70
2017-12-10T22:35:25.648Z,100002.60
2017-12-10T22:37:52.186Z,100007.49
2017-12-10T22:40:18.643Z,100001.93
2017-12-10T22:42:45.181Z,99996.17
2017-12-10T22:45:11.569Z,99994.47
2017-12-10T22:47:37.976Z,99993.20
2017-12-10T22:50:04.380Z,99985.48
2017-12-10T22:52:30.777Z,99979.88
2017-12-10T22:54:57.125Z,99971.35
2017-12-10T22:57:23.560Z,99965.88
2017-12-10T22:59:49.930Z,99971.59
2017-12-10T23:02:16.281Z,99981.14
2017-12-10T23:04:42.716Z,99986.67
2017-12-10T23:07:09.128Z,99975.40
2017-12-10T23:09:35.492Z,99954.51
2017-12-10T23:12:01.921Z,99957.97
2017-12-10T23:14:34.272Z,99952.44
2017-12-10T23:17:00.691Z,99957.20
2017-12-10T23:19:27.080Z,99961.59
2017-12-10T23:21:53.485Z,99957.78
2017-12-10T23:24:19.874Z,99944.68
2017-12-10T23:26:46.345Z,99944.06
2017-12-10T23:29:12.944Z,99950.48
2017-12-10T23:31:39.388Z,99944.79
2017-12-10T23:34:05.908Z,99950.95
2017-12-10T23:36:32.367Z,99955.18
2017-12-10T23:38:58.835Z,99955.55
2017-12-10T23:41:25.317Z,99954.22
2017-12-10T23:43:51.925Z,99964.07
2017-12-10T23:46:18.331Z,99959.81
2017-12-10T23:48:44.848Z,99960.67
2017-12-10T23:51:11.245Z,99964.61
2017-12-10T23:53:37.634Z,99974.69
2017-12-10T23:56:04.120Z,99972.13
2017-12-10T23:58:30.503Z,99985.87
